Time;durP1;ratioP1;P1;durP2;ratioP2;P2;SDS_P1;SDS_P2;PMS_P1;PMS_P2;Temp;Humidity;BMP_temperature;BMP_pressure;BME280_temperature;BME280_humidity;BME280_pressure;Samples;Min_cycle;Max_cycle;Signal;HPM_P1;HPM_P2
2023/03/23 00:02:25;;;;;;;0.22;0.22;;;10.60;99.90;;;;;;5012428;28;20129;-72
2023/03/23 00:04:51;;;;;;;1.20;0.43;;;10.60;99.90;;;;;;4997461;28;20057;-72
2023/03/23 00:07:21;;;;;;;0.38;0.38;;;10.60;99.90;;;;;;5002517;28;20042;-71
2023/03/23 00:09:52;;;;;;;0.10;0.10;;;10.60;99.90;;;;;;5012269;28;20385;-71
2023/03/23 00:12:19;;;;;;;0.08;0.08;;;10.60;99.90;;;;;;4997727;28;20042;-71
2023/03/23 00:14:45;;;;;;;0.98;0.90;;;10.60;99.90;;;;;;5010392;28;20046;-71
2023/03/23 00:17:14;;;;;;;0.20;0.20;;;10.60;99.90;;;;;;4999644;28;20397;-71
2023/03/23 00:19:45;;;;;;;0.17;0.17;;;10.70;99.90;;;;;;5009431;28;20148;-71
2023/03/23 00:22:13;;;;;;;0.28;0.28;;;10.70;99.90;;;;;;4999036;28;20050;-71
2023/03/23 00:24:39;;;;;;;1.27;1.20;;;10.70;99.90;;;;;;5002454;28;20052;-71
2023/03/23 00:27:05;;;;;;;0.10;0.10;;;10.80;99.90;;;;;;5010413;28;20456;-71
2023/03/23 00:29:31;;;;;;;0.17;0.17;;;10.70;99.90;;;;;;4999633;28;20038;-71
2023/03/23 00:31:57;;;;;;;0.28;0.28;;;10.70;99.90;;;;;;5002429;28;20050;-71
2023/03/23 00:34:24;;;;;;;0.25;0.25;;;10.70;99.90;;;;;;5009734;28;20105;-71
2023/03/23 00:36:56;;;;;;;0.20;0.20;;;10.70;99.90;;;;;;5011609;28;20129;-71
2023/03/23 00:39:25;;;;;;;0.10;0.10;;;10.70;99.90;;;;;;5000250;28;20046;-71
2023/03/23 00:41:51;;;;;;;0.38;0.38;;;10.70;99.90;;;;;;5007592;28;20077;-71
2023/03/23 00:44:17;;;;;;;0.73;0.47;;;10.70;99.90;;;;;;5003750;28;20553;-70
2023/03/23 00:46:48;;;;;;;0.47;0.47;;;10.70;99.90;;;;;;5003994;28;20046;-71
2023/03/23 00:49:15;;;;;;;0.20;0.20;;;10.70;99.90;;;;;;5006132;28;20478;-70
2023/03/23 00:51:42;;;;;;;0.38;0.38;;;10.70;99.90;;;;;;5002874;28;20046;-70
2023/03/23 00:54:08;;;;;;;0.22;0.22;;;10.70;99.90;;;;;;4999942;28;20449;-70
2023/03/23 00:56:34;;;;;;;0.20;0.20;;;10.60;99.90;;;;;;5006526;28;20477;-70
2023/03/23 00:59:00;;;;;;;0.30;0.30;;;10.60;99.90;;;;;;5012102;28;20046;-70
2023/03/23 01:01:25;;;;;;;0.90;0.90;;;10.60;99.90;;;;;;5010268;28;20482;-70
2023/03/23 01:03:53;;;;;;;0.32;0.32;;;10.60;99.90;;;;;;5000530;28;20046;-70
2023/03/23 01:06:18;;;;;;;0.98;0.98;;;10.60;99.90;;;;;;5007650;28;20057;-70
2023/03/23 01:08:46;;;;;;;1.02;1.00;;;10.60;99.90;;;;;;4995384;28;20045;-70
2023/03/23 01:11:15;;;;;;;0.15;0.15;;;10.70;99.90;;;;;;5007274;28;20046;-70
2023/03/23 01:13:42;;;;;;;0.65;0.65;;;10.70;99.90;;;;;;5002626;28;20089;-70
2023/03/23 01:16:09;;;;;;;0.15;0.15;;;10.70;99.90;;;;;;5009794;28;20034;-70
2023/03/23 01:18:35;;;;;;;0.10;0.10;;;10.70;99.90;;;;;;5001318;28;20042;-70
2023/03/23 01:21:10;;;;;;;0.75;0.75;;;10.80;99.90;;;;;;4997431;28;20098;-70
2023/03/23 01:23:36;;;;;;;0.10;0.10;;;10.80;99.90;;;;;;5011765;28;20049;-70
2023/03/23 01:26:08;;;;;;;0.20;0.20;;;10.90;99.90;;;;;;5005012;28;20081;-70
2023/03/23 01:28:35;;;;;;;0.45;0.45;;;10.90;99.90;;;;;;4997113;28;20289;-71
2023/03/23 01:31:06;;;;;;;0.38;0.38;;;10.90;99.90;;;;;;5001791;28;20061;-71
2023/03/23 01:33:32;;;;;;;8.60;2.38;;;10.90;99.90;;;;;;4999586;28;20042;-70
2023/03/23 01:36:02;;;;;;;0.10;0.10;;;11.00;99.90;;;;;;5010627;28;20168;-71
2023/03/23 01:38:27;;;;;;;0.10;0.10;;;11.10;99.90;;;;;;5000100;28;20049;-71
2023/03/23 01:40:53;;;;;;;0.10;0.10;;;11.10;99.90;;;;;;5008105;28;20046;-71
2023/03/23 01:43:19;;;;;;;0.10;0.10;;;11.10;99.90;;;;;;4998479;28;20060;-71
2023/03/23 01:45:45;;;;;;;1.30;1.20;;;11.00;99.90;;;;;;5007920;28;20069;-71
2023/03/23 01:48:27;;;;;;;1.33;1.05;;;11.00;99.90;;;;;;5010585;28;20046;-70
2023/03/23 01:51:06;;;;;;;0.68;0.68;;;11.00;99.90;;;;;;4995392;28;20038;-71
2023/03/23 01:53:38;;;;;;;0.30;0.30;;;11.10;99.90;;;;;;5006173;28;20401;-70
2023/03/23 01:56:05;;;;;;;0.20;0.20;;;11.10;99.90;;;;;;5008939;28;20460;-70
2023/03/23 01:58:34;;;;;;;0.22;0.22;;;11.10;99.90;;;;;;5008073;28;20056;-70
2023/03/23 02:01:04;;;;;;;1.85;0.63;;;11.20;99.90;;;;;;4999771;28;20050;-70
2023/03/23 02:03:32;;;;;;;0.85;0.65;;;11.20;99.90;;;;;;5002561;28;20042;-69
2023/03/23 02:06:00;;;;;;;0.10;0.10;;;11.30;99.90;;;;;;5010320;28;20041;-70
2023/03/23 02:08:28;;;;;;;1.10;0.65;;;11.20;99.90;;;;;;4994887;28;20037;-70
2023/03/23 02:10:54;;;;;;;0.10;0.10;;;11.40;99.90;;;;;;5005405;28;20064;-70
2023/03/23 02:13:20;;;;;;;0.22;0.22;;;11.30;99.90;;;;;;4994300;28;20034;-69
2023/03/23 02:15:58;;;;;;;0.20;0.20;;;11.40;99.90;;;;;;5001253;28;20038;-70
2023/03/23 02:18:32;;;;;;;0.35;0.35;;;11.40;99.90;;;;;;5003008;28;20073;-70
2023/03/23 02:21:26;;;;;;;0.47;0.47;;;11.40;99.90;;;;;;5009591;28;20087;-70
2023/03/23 02:24:16;;;;;;;0.30;0.30;;;11.40;99.90;;;;;;5003053;28;20073;-69
2023/03/23 02:27:03;;;;;;;0.10;0.10;;;11.40;99.90;;;;;;5000305;28;20048;-70
2023/03/23 02:29:58;;;;;;;0.28;0.28;;;11.40;99.90;;;;;;5008714;28;20053;-69
2023/03/23 02:32:35;;;;;;;0.52;0.30;;;11.50;99.90;;;;;;4996766;28;20129;-70
2023/03/23 02:35:05;;;;;;;0.10;0.10;;;11.40;99.90;;;;;;5002626;28;20544;-69
2023/03/23 02:37:32;;;;;;;0.63;0.63;;;11.50;99.90;;;;;;5005132;28;20046;-69
2023/03/23 02:40:11;;;;;;;0.20;0.20;;;11.50;99.90;;;;;;4999932;28;20052;-69
2023/03/23 02:42:41;;;;;;;0.28;0.28;;;11.40;99.90;;;;;;5005350;28;20785;-69
2023/03/23 02:45:10;;;;;;;0.10;0.10;;;11.50;99.90;;;;;;5007423;28;20058;-69
2023/03/23 02:47:38;;;;;;;0.10;0.10;;;11.50;99.90;;;;;;5006089;28;20128;-69
2023/03/23 02:50:07;;;;;;;0.20;0.20;;;11.50;99.90;;;;;;5000469;28;20042;-69
2023/03/23 02:52:35;;;;;;;4.65;2.53;;;11.50;99.90;;;;;;5005003;28;20057;-69
2023/03/23 02:55:02;;;;;;;0.55;0.55;;;11.50;99.90;;;;;;5002295;28;20041;-68
2023/03/23 02:57:28;;;;;;;0.00;0.00;;;11.50;99.90;;;;;;5009940;28;20041;-68
2023/03/23 02:59:54;;;;;;;0.10;0.10;;;11.50;99.90;;;;;;5004110;28;20496;-69
2023/03/23 03:02:29;;;;;;;0.38;0.38;;;11.50;99.90;;;;;;4997476;28;20042;-69
2023/03/23 03:05:00;;;;;;;0.10;0.10;;;11.40;99.90;;;;;;5004609;28;20046;-69
2023/03/23 03:07:35;;;;;;;0.40;0.40;;;11.40;99.90;;;;;;5002181;28;20374;-68
2023/03/23 03:10:00;;;;;;;0.25;0.25;;;11.30;99.90;;;;;;5000373;28;20049;-69
2023/03/23 03:12:51;;;;;;;4.90;1.75;;;11.40;99.90;;;;;;5009780;28;20532;-69
2023/03/23 03:15:38;;;;;;;0.20;0.20;;;11.40;99.90;;;;;;5008578;28;20050;-69
2023/03/23 03:18:22;;;;;;;0.20;0.20;;;11.40;99.90;;;;;;4998675;28;20038;-69
2023/03/23 03:20:53;;;;;;;0.20;0.20;;;11.50;99.90;;;;;;4999524;28;20054;-70
2023/03/23 03:23:21;;;;;;;0.10;0.10;;;11.50;99.90;;;;;;5002862;28;20493;-71
2023/03/23 03:25:48;;;;;;;0.10;0.10;;;11.40;99.90;;;;;;5009527;28;20072;-71
2023/03/23 03:28:21;;;;;;;0.00;0.00;;;11.30;99.90;;;;;;5000368;28;20402;-71
2023/03/23 03:30:51;;;;;;;0.20;0.20;;;11.20;99.90;;;;;;5004226;28;20049;-71
2023/03/23 03:33:17;;;;;;;0.17;0.17;;;11.10;99.90;;;;;;4996484;28;20083;-71
2023/03/23 03:35:44;;;;;;;0.00;0.00;;;10.90;99.90;;;;;;5004763;28;20041;-71
2023/03/23 03:38:11;;;;;;;0.10;0.10;;;10.90;99.90;;;;;;5008612;28;20104;-72
2023/03/23 03:40:37;;;;;;;0.75;0.75;;;10.80;99.90;;;;;;4991560;28;20050;-72
2023/03/23 03:43:03;;;;;;;0.20;0.20;;;10.80;99.90;;;;;;5000047;28;20042;-72
2023/03/23 03:45:28;;;;;;;7.18;1.85;;;10.70;99.90;;;;;;5006708;28;20105;-72
2023/03/23 03:47:54;;;;;;;0.55;0.55;;;10.70;99.90;;;;;;5004955;28;20053;-72
2023/03/23 03:50:20;;;;;;;0.10;0.10;;;10.70;99.90;;;;;;5001548;28;20038;-72
2023/03/23 03:52:46;;;;;;;0.20;0.20;;;10.70;99.90;;;;;;5008706;28;20049;-72
2023/03/23 03:55:12;;;;;;;0.77;0.77;;;10.70;99.90;;;;;;5007113;28;20045;-71
2023/03/23 03:57:38;;;;;;;5.28;1.40;;;10.60;99.90;;;;;;5003241;28;20498;-71
2023/03/23 04:00:14;;;;;;;0.00;0.00;;;10.60;99.90;;;;;;5004054;28;20049;-71
2023/03/23 04:02:51;;;;;;;0.00;0.00;;;10.70;99.90;;;;;;5010654;28;20052;-71
2023/03/23 04:05:18;;;;;;;0.95;0.57;;;10.70;99.90;;;;;;5001766;28;20113;-71
2023/03/23 04:07:45;;;;;;;0.10;0.10;;;10.80;99.90;;;;;;5004975;28;20042;-71
2023/03/23 04:10:12;;;;;;;0.43;0.43;;;10.80;99.90;;;;;;5004356;28;20482;-71
2023/03/23 04:12:38;;;;;;;0.00;0.00;;;10.80;99.90;;;;;;5009928;28;20057;-71
2023/03/23 04:15:05;;;;;;;0.10;0.10;;;10.80;99.90;;;;;;5012228;28;20046;-71
2023/03/23 04:17:30;;;;;;;1.38;1.27;;;10.80;99.90;;;;;;4997068;28;20049;-71
2023/03/23 04:19:56;;;;;;;0.40;0.40;;;10.80;99.90;;;;;;5003467;28;20050;-71
2023/03/23 04:22:29;;;;;;;1.67;0.95;;;10.80;99.90;;;;;;5010358;28;20046;-70
2023/03/23 04:25:00;;;;;;;0.10;0.10;;;10.80;99.90;;;;;;5002295;28;20525;-71
2023/03/23 04:27:27;;;;;;;0.30;0.30;;;10.80;99.90;;;;;;5000095;28;20054;-71
2023/03/23 04:29:56;;;;;;;0.55;0.55;;;10.70;99.90;;;;;;5010548;28;20045;-70
2023/03/23 04:32:21;;;;;;;0.32;0.30;;;10.70;99.90;;;;;;5005992;28;20061;-70
2023/03/23 04:34:48;;;;;;;0.75;0.75;;;10.70;99.90;;;;;;5004558;28;20046;-70
2023/03/23 04:37:14;;;;;;;0.57;0.57;;;10.70;99.90;;;;;;4998360;28;20525;-70
2023/03/23 04:39:41;;;;;;;0.00;0.00;;;10.70;99.90;;;;;;5001266;28;20053;-70
2023/03/23 04:42:06;;;;;;;0.10;0.10;;;10.70;99.90;;;;;;5000940;28;20497;-70
2023/03/23 04:44:32;;;;;;;6.13;1.10;;;10.70;99.90;;;;;;5007975;28;20077;-70
2023/03/23 04:47:01;;;;;;;0.30;0.30;;;10.60;99.90;;;;;;5002989;28;20045;-70
2023/03/23 04:49:26;;;;;;;0.10;0.10;;;10.70;99.90;;;;;;5009077;28;20041;-70
2023/03/23 04:51:52;;;;;;;0.30;0.30;;;10.70;99.90;;;;;;5011066;28;20049;-70
2023/03/23 04:54:18;;;;;;;1.15;1.08;;;10.60;99.90;;;;;;5011487;28;20128;-69
2023/03/23 04:56:43;;;;;;;1.15;1.08;;;10.60;99.90;;;;;;5002196;28;20183;-69
2023/03/23 04:59:09;;;;;;;0.17;0.17;;;10.60;99.90;;;;;;5008437;28;20495;-69
2023/03/23 05:01:37;;;;;;;0.40;0.40;;;10.60;99.90;;;;;;5008712;28;20049;-69
2023/03/23 05:04:03;;;;;;;0.30;0.30;;;10.60;99.90;;;;;;5004357;28;20054;-69
2023/03/23 05:06:28;;;;;;;0.10;0.10;;;10.60;99.90;;;;;;5006931;28;20498;-69
2023/03/23 05:08:54;;;;;;;0.43;0.43;;;10.60;99.90;;;;;;5007152;28;20174;-70
2023/03/23 05:11:20;;;;;;;0.85;0.85;;;10.60;99.90;;;;;;4996368;28;20058;-69
2023/03/23 05:13:45;;;;;;;0.55;0.55;;;10.50;99.90;;;;;;5009805;28;20052;-69
2023/03/23 05:16:11;;;;;;;1.17;1.13;;;10.50;99.90;;;;;;5011263;28;20076;-69
2023/03/23 05:18:36;;;;;;;0.10;0.10;;;10.50;99.90;;;;;;5006949;28;20462;-69
2023/03/23 05:21:03;;;;;;;3.92;1.65;;;10.40;99.90;;;;;;4999828;28;20053;-69
2023/03/23 05:23:30;;;;;;;0.22;0.22;;;10.40;99.90;;;;;;5009476;28;20038;-69
2023/03/23 05:26:00;;;;;;;1.60;1.42;;;10.40;99.90;;;;;;5010120;28;20096;-69
2023/03/23 05:28:27;;;;;;;1.30;1.20;;;10.40;99.90;;;;;;4993778;28;20073;-69
2023/03/23 05:30:53;;;;;;;1.50;0.90;;;10.40;99.90;;;;;;5005429;28;20045;-69
2023/03/23 05:33:19;;;;;;;0.10;0.10;;;10.40;99.90;;;;;;5000915;28;20048;-69
2023/03/23 05:35:47;;;;;;;0.10;0.10;;;10.40;99.90;;;;;;5005497;28;20580;-69
2023/03/23 05:38:14;;;;;;;1.10;1.10;;;10.40;99.90;;;;;;4993618;28;20054;-69
2023/03/23 05:40:41;;;;;;;0.47;0.47;;;10.40;99.90;;;;;;5008920;28;20050;-69
2023/03/23 05:43:09;;;;;;;0.10;0.10;;;10.40;99.90;;;;;;5007605;28;20042;-69
2023/03/23 05:45:35;;;;;;;2.30;1.73;;;10.50;99.90;;;;;;5000466;28;20054;-69
2023/03/23 05:48:01;;;;;;;34.17;2.17;;;10.50;99.90;;;;;;4999055;28;20046;-68
2023/03/23 05:50:27;;;;;;;0.10;0.10;;;10.50;99.90;;;;;;5007657;28;20049;-68
2023/03/23 05:52:54;;;;;;;1.40;1.25;;;10.50;99.90;;;;;;5004705;28;20054;-69
2023/03/23 05:55:19;;;;;;;1.35;1.08;;;10.40;99.90;;;;;;4996228;28;20552;-69
2023/03/23 05:57:45;;;;;;;1.63;0.73;;;10.30;99.90;;;;;;5009728;28;20065;-70
2023/03/23 06:00:14;;;;;;;0.35;0.35;;;10.20;99.90;;;;;;5004523;28;20117;-69
2023/03/23 06:02:43;;;;;;;0.10;0.10;;;10.10;99.90;;;;;;5002123;28;20069;-69
2023/03/23 06:05:10;;;;;;;0.45;0.45;;;10.10;99.90;;;;;;4998755;28;20042;-70
2023/03/23 06:07:37;;;;;;;0.00;0.00;;;10.10;99.90;;;;;;5004725;28;20491;-69
2023/03/23 06:10:04;;;;;;;0.10;0.10;;;10.00;99.90;;;;;;5002364;28;20038;-69
2023/03/23 06:12:31;;;;;;;0.30;0.30;;;10.00;99.90;;;;;;4992311;28;20050;-69
2023/03/23 06:14:57;;;;;;;0.10;0.10;;;9.90;99.90;;;;;;5001146;28;20049;-69
2023/03/23 06:17:22;;;;;;;0.25;0.25;;;9.90;99.90;;;;;;5000290;28;20046;-69
2023/03/23 06:19:50;;;;;;;0.85;0.82;;;9.90;99.90;;;;;;4991315;28;20045;-69
2023/03/23 06:22:16;;;;;;;0.98;0.98;;;9.80;99.90;;;;;;5003065;28;20046;-69
2023/03/23 06:24:42;;;;;;;0.10;0.10;;;9.80;99.90;;;;;;5002766;28;20121;-68
2023/03/23 06:27:09;;;;;;;0.00;0.00;;;9.80;99.90;;;;;;5000098;28;20460;-69
2023/03/23 06:29:34;;;;;;;3.35;0.22;;;9.80;99.90;;;;;;5009656;28;20524;-69
2023/03/23 06:32:02;;;;;;;0.10;0.10;;;9.80;99.90;;;;;;4993069;28;20058;-69
2023/03/23 06:34:28;;;;;;;0.10;0.10;;;9.80;99.90;;;;;;5007487;28;20111;-68
2023/03/23 06:36:53;;;;;;;0.10;0.10;;;9.80;99.90;;;;;;4998409;28;20054;-68
2023/03/23 06:39:19;;;;;;;0.10;0.10;;;9.90;99.90;;;;;;5006496;28;20374;-69
2023/03/23 06:41:45;;;;;;;2.83;1.08;;;9.90;99.90;;;;;;5010085;28;20046;-68
2023/03/23 06:44:13;;;;;;;0.80;0.77;;;9.90;99.90;;;;;;4994583;28;20173;-68
2023/03/23 06:46:40;;;;;;;0.10;0.10;;;9.90;99.90;;;;;;5003115;28;20091;-68
2023/03/23 06:49:05;;;;;;;2.15;1.67;;;9.90;99.90;;;;;;4996252;28;20432;-69
2023/03/23 06:51:31;;;;;;;0.10;0.10;;;9.90;99.90;;;;;;4994601;28;20046;-69
2023/03/23 06:53:57;;;;;;;0.30;0.30;;;9.90;99.90;;;;;;5005603;28;20069;-68
2023/03/23 06:56:23;;;;;;;0.65;0.65;;;9.90;99.90;;;;;;4999299;28;20046;-68
2023/03/23 06:58:49;;;;;;;1.08;1.02;;;10.00;99.90;;;;;;4999261;28;20046;-68
2023/03/23 07:01:15;;;;;;;0.10;0.10;;;10.10;99.90;;;;;;5003221;28;20080;-66
2023/03/23 07:03:41;;;;;;;0.10;0.10;;;10.20;99.90;;;;;;5004482;28;20049;-68
2023/03/23 07:06:07;;;;;;;0.10;0.10;;;10.20;99.90;;;;;;4992093;28;20046;-68
2023/03/23 07:08:33;;;;;;;0.52;0.52;;;10.20;99.90;;;;;;5003232;28;20050;-68
2023/03/23 07:10:59;;;;;;;2.15;2.05;;;10.30;99.90;;;;;;5001956;28;20068;-68
2023/03/23 07:13:26;;;;;;;3.72;2.30;;;10.30;99.90;;;;;;4999407;28;20124;-67
2023/03/23 07:15:52;;;;;;;0.95;0.95;;;10.40;99.90;;;;;;5008796;28;20053;-68
2023/03/23 07:18:18;;;;;;;0.40;0.40;;;10.40;99.90;;;;;;4999051;28;20070;-68
2023/03/23 07:20:48;;;;;;;0.22;0.22;;;10.40;99.90;;;;;;5003552;28;20131;-68
2023/03/23 07:23:14;;;;;;;0.98;0.85;;;10.50;99.90;;;;;;5001575;28;20485;-68
2023/03/23 07:25:40;;;;;;;4.35;2.70;;;10.60;99.90;;;;;;5002659;28;20042;-68
2023/03/23 07:28:06;;;;;;;1.17;1.00;;;10.70;99.90;;;;;;5002692;28;20060;-68
2023/03/23 07:30:32;;;;;;;0.25;0.25;;;10.70;99.90;;;;;;4997655;28;20073;-67
2023/03/23 07:32:58;;;;;;;3.47;3.17;;;10.80;99.90;;;;;;5003431;28;20041;-67
2023/03/23 07:35:25;;;;;;;0.20;0.20;;;10.80;99.90;;;;;;4999794;28;20034;-68
2023/03/23 07:37:51;;;;;;;3.10;1.75;;;10.80;99.90;;;;;;5007404;28;20052;-67
2023/03/23 07:40:18;;;;;;;1.38;1.27;;;10.80;99.90;;;;;;5012104;28;20073;-67
2023/03/23 07:42:52;;;;;;;3.08;2.88;;;10.80;99.90;;;;;;5013360;28;20122;-67
2023/03/23 07:45:18;;;;;;;0.13;0.13;;;10.80;99.90;;;;;;5000075;28;20562;-67
2023/03/23 07:47:43;;;;;;;0.85;0.63;;;10.80;99.90;;;;;;5002136;28;20125;-69
2023/03/23 07:50:11;;;;;;;1.40;1.30;;;10.90;99.90;;;;;;5011034;28;20041;-69
2023/03/23 07:52:36;;;;;;;4.60;2.53;;;10.90;99.90;;;;;;5010403;28;20057;-67
2023/03/23 07:55:04;;;;;;;4.68;2.08;;;11.00;99.90;;;;;;5012290;28;20049;-67
2023/03/23 07:57:30;;;;;;;0.38;0.38;;;11.00;99.90;;;;;;5006430;28;20490;-67
2023/03/23 07:59:56;;;;;;;0.20;0.20;;;11.10;99.90;;;;;;5002996;28;20046;-67
2023/03/23 08:02:23;;;;;;;1.33;1.23;;;11.10;99.90;;;;;;5006992;28;20045;-67
2023/03/23 08:04:48;;;;;;;3.78;2.20;;;11.10;99.90;;;;;;5013639;28;20085;-67
2023/03/23 08:07:16;;;;;;;0.10;0.10;;;11.10;99.90;;;;;;5002752;28;20042;-67
2023/03/23 08:09:42;;;;;;;0.10;0.10;;;11.10;99.90;;;;;;5008749;28;20502;-67
2023/03/23 08:12:07;;;;;;;0.30;0.30;;;11.20;99.90;;;;;;4995368;28;20050;-67
2023/03/23 08:14:33;;;;;;;0.50;0.50;;;11.50;99.90;;;;;;5009638;28;20038;-67
2023/03/23 08:17:00;;;;;;;0.20;0.20;;;11.50;99.90;;;;;;5012452;28;20140;-67
2023/03/23 08:19:26;;;;;;;0.10;0.10;;;11.80;99.90;;;;;;4999298;28;20037;-67
2023/03/23 08:21:51;;;;;;;0.98;0.98;;;12.40;99.90;;;;;;5003594;28;20571;-67
2023/03/23 08:24:18;;;;;;;0.10;0.10;;;13.20;99.90;;;;;;5012143;28;20038;-67
2023/03/23 08:26:44;;;;;;;0.20;0.20;;;13.70;99.90;;;;;;5013341;28;20088;-67
2023/03/23 08:29:09;;;;;;;0.10;0.10;;;14.10;99.90;;;;;;5002944;28;20061;-67
2023/03/23 08:31:37;;;;;;;0.00;0.00;;;14.40;99.90;;;;;;5004282;28;20058;-67
2023/03/23 08:34:04;;;;;;;0.95;0.95;;;14.60;99.90;;;;;;5012659;28;20038;-67
2023/03/23 08:36:31;;;;;;;1.17;0.22;;;14.90;99.90;;;;;;5010656;28;20053;-68
2023/03/23 08:38:57;;;;;;;0.30;0.30;;;15.20;99.90;;;;;;4999652;28;20088;-67
2023/03/23 08:41:23;;;;;;;1.17;0.90;;;15.30;99.90;;;;;;5004018;28;20482;-67
2023/03/23 08:43:50;;;;;;;0.00;0.00;;;15.50;99.90;;;;;;5001584;28;20044;-67
2023/03/23 08:46:16;;;;;;;0.85;0.85;;;15.50;99.90;;;;;;5010914;28;20076;-67
2023/03/23 08:48:43;;;;;;;1.60;1.00;;;15.70;99.90;;;;;;5001403;28;20113;-68
2023/03/23 08:51:10;;;;;;;0.52;0.47;;;15.30;99.90;;;;;;5005123;28;20453;-67
2023/03/23 08:53:36;;;;;;;1.00;0.95;;;15.50;99.90;;;;;;5001549;28;20425;-67
2023/03/23 08:56:07;;;;;;;1.40;0.88;;;15.40;99.90;;;;;;5003207;28;20052;-67
2023/03/23 08:58:34;;;;;;;1.95;1.45;;;15.30;99.90;;;;;;5010772;28;20548;-67
2023/03/23 09:01:00;;;;;;;0.65;0.65;;;14.40;99.90;;;;;;4994095;28;20117;-67
2023/03/23 09:03:26;;;;;;;4.28;2.78;;;14.30;99.90;;;;;;5010318;28;20045;-68
2023/03/23 09:05:53;;;;;;;0.10;0.10;;;14.50;99.90;;;;;;5000342;28;20129;-67
2023/03/23 09:08:18;;;;;;;0.38;0.38;;;15.00;99.90;;;;;;5009409;28;20046;-67
2023/03/23 09:10:44;;;;;;;0.03;0.03;;;15.20;99.90;;;;;;4992809;28;20509;-67
2023/03/23 09:13:10;;;;;;;0.30;0.30;;;15.40;99.90;;;;;;5008057;28;20052;-67
2023/03/23 09:15:36;;;;;;;1.02;1.00;;;15.30;99.90;;;;;;5000480;28;20133;-67
2023/03/23 09:18:03;;;;;;;2.33;2.15;;;14.90;99.90;;;;;;5010233;28;20077;-67
2023/03/23 09:20:29;;;;;;;9.25;2.03;;;14.70;99.90;;;;;;5007344;28;20053;-67
2023/03/23 09:22:57;;;;;;;0.17;0.17;;;14.60;99.90;;;;;;4993797;28;20282;-67
2023/03/23 09:25:25;;;;;;;0.68;0.68;;;14.50;99.90;;;;;;4999093;28;20046;-67
2023/03/23 09:27:58;;;;;;;1.30;1.20;;;14.30;99.90;;;;;;5010092;28;20401;-67
2023/03/23 09:30:27;;;;;;;1.85;1.10;;;14.50;99.90;;;;;;5010525;28;20107;-67
2023/03/23 09:32:54;;;;;;;12.43;4.38;;;14.00;99.90;;;;;;4999781;28;20053;-66
2023/03/23 09:35:21;;;;;;;2.45;2.30;;;14.30;99.90;;;;;;4995354;28;20118;-66
2023/03/23 09:37:48;;;;;;;0.17;0.17;;;13.80;99.90;;;;;;5004045;28;20041;-66
2023/03/23 09:40:19;;;;;;;2.15;1.77;;;14.40;99.90;;;;;;5000847;28;20043;-67
2023/03/23 09:42:58;;;;;;;0.65;0.20;;;14.70;99.90;;;;;;5006255;28;20145;-67
2023/03/23 09:45:38;;;;;;;0.45;0.43;;;14.70;99.90;;;;;;4993769;28;20062;-67
2023/03/23 09:48:36;;;;;;;0.65;0.65;;;14.70;99.90;;;;;;5004758;28;20068;-67
2023/03/23 09:51:16;;;;;;;0.68;0.40;;;14.70;99.90;;;;;;4997687;28;20128;-66
2023/03/23 09:53:48;;;;;;;4.97;3.58;;;14.60;99.90;;;;;;5008065;28;20112;-67
2023/03/23 09:56:15;;;;;;;0.85;0.73;;;14.20;99.90;;;;;;5002486;28;20116;-66
2023/03/23 09:59:12;;;;;;;4.20;1.55;;;14.20;99.90;;;;;;4997594;28;20428;-67
2023/03/23 10:01:50;;;;;;;0.22;0.22;;;13.90;99.90;;;;;;4995427;28;20132;-66
2023/03/23 10:04:35;;;;;;;0.85;0.82;;;13.90;99.90;;;;;;5003982;28;20415;-67
2023/03/23 10:07:22;;;;;;;1.08;0.90;;;14.40;99.90;;;;;;5002834;28;20085;-67
2023/03/23 10:09:51;;;;;;;0.80;0.80;;;14.50;99.90;;;;;;5005755;28;20382;-67
2023/03/23 10:12:27;;;;;;;1.38;1.25;;;14.50;99.90;;;;;;5004084;28;20048;-67
2023/03/23 10:15:05;;;;;;;0.77;0.77;;;14.20;99.90;;;;;;5003348;28;20052;-67
2023/03/23 10:17:54;;;;;;;1.02;0.43;;;14.10;99.90;;;;;;4994853;28;20096;-67
2023/03/23 10:20:38;;;;;;;3.70;2.03;;;14.30;99.90;;;;;;5007020;28;20056;-67
2023/03/23 10:23:13;;;;;;;1.95;1.40;;;14.40;99.90;;;;;;5006456;28;20050;-67
2023/03/23 10:25:45;;;;;;;0.10;0.10;;;14.40;99.90;;;;;;5001507;28;20058;-67
2023/03/23 10:28:19;;;;;;;0.43;0.43;;;14.50;99.90;;;;;;4999688;28;20443;-67
2023/03/23 10:30:53;;;;;;;3.65;2.63;;;14.60;99.90;;;;;;5000947;28;20046;-67
2023/03/23 10:33:34;;;;;;;3.00;2.45;;;14.30;99.90;;;;;;5005756;28;20041;-67
2023/03/23 10:36:17;;;;;;;0.10;0.10;;;14.00;99.90;;;;;;5006389;28;20100;-67
2023/03/23 10:38:57;;;;;;;1.38;1.27;;;13.90;99.90;;;;;;5003423;28;20046;-67
2023/03/23 10:41:23;;;;;;;1.67;1.58;;;13.90;99.90;;;;;;5002409;28;20433;-67
2023/03/23 10:43:50;;;;;;;3.10;1.75;;;13.60;99.90;;;;;;5009589;28;20045;-67
2023/03/23 10:46:36;;;;;;;0.95;0.50;;;13.50;99.90;;;;;;5006906;28;20548;-67
2023/03/23 10:49:08;;;;;;;0.22;0.22;;;13.30;99.90;;;;;;5000734;28;20459;-67
2023/03/23 10:51:40;;;;;;;0.25;0.25;;;13.30;99.90;;;;;;4995962;28;20082;-67
2023/03/23 10:54:07;;;;;;;0.13;0.10;;;13.20;99.90;;;;;;4992702;28;20042;-67
2023/03/23 10:56:44;;;;;;;0.35;0.35;;;13.10;99.90;;;;;;5009601;28;20387;-67
2023/03/23 10:59:33;;;;;;;8.73;3.22;;;13.00;99.90;;;;;;5005142;28;20041;-67
2023/03/23 11:02:03;;;;;;;0.10;0.10;;;13.40;99.90;;;;;;4996350;28;20053;-67
2023/03/23 11:04:31;;;;;;;0.20;0.20;;;13.60;99.90;;;;;;5004763;28;20038;-67
2023/03/23 11:07:00;;;;;;;0.65;0.65;;;13.90;99.90;;;;;;4999117;28;20050;-66
2023/03/23 11:09:51;;;;;;;0.68;0.65;;;14.20;99.90;;;;;;5009497;28;20477;-67
2023/03/23 11:12:20;;;;;;;1.00;0.90;;;14.40;99.90;;;;;;5002269;28;20493;-67
2023/03/23 11:14:46;;;;;;;0.75;0.75;;;14.40;99.90;;;;;;5012484;28;20132;-66
2023/03/23 11:17:24;;;;;;;0.10;0.10;;;14.60;99.90;;;;;;5016390;28;20120;-67
2023/03/23 11:19:51;;;;;;;0.20;0.20;;;14.70;99.90;;;;;;5001502;28;20494;-67
2023/03/23 11:22:27;;;;;;;0.20;0.20;;;14.90;99.90;;;;;;5012144;28;20097;-67
2023/03/23 11:25:01;;;;;;;0.08;0.08;;;15.00;99.90;;;;;;5009492;28;20046;-67
2023/03/23 11:27:27;;;;;;;;;;;14.90;99.90;;;;;;5010864;28;20382;-67
2023/03/23 11:29:56;;;;;;;0.80;0.80;;;15.00;99.90;;;;;;5006634;28;19921;-67
2023/03/23 11:32:31;;;;;;;0.60;0.60;;;15.10;99.90;;;;;;5012977;28;20456;-67
2023/03/23 11:35:04;;;;;;;1.00;0.50;;;14.90;99.90;;;;;;5013767;28;20509;-67
2023/03/23 11:37:35;;;;;;;0.60;0.60;;;15.10;99.90;;;;;;5015382;28;20037;-67
2023/03/23 11:40:12;;;;;;;0.40;0.40;;;15.30;99.90;;;;;;5005381;28;20042;-67
2023/03/23 11:42:47;;;;;;;0.45;0.45;;;15.70;99.90;;;;;;5012913;28;20052;-67
2023/03/23 11:45:35;;;;;;;0.28;0.28;;;15.70;99.90;;;;;;5004926;28;20410;-67
2023/03/23 11:48:10;;;;;;;1.17;0.93;;;15.50;99.90;;;;;;5008944;28;20057;-67
2023/03/23 11:51:18;;;;;;;1.17;0.80;;;15.50;99.90;;;;;;5004598;28;20406;-67
2023/03/23 11:53:47;;;;;;;12.32;1.10;;;15.70;99.90;;;;;;5011752;28;20062;-67
2023/03/23 11:56:24;;;;;;;1.13;1.08;;;15.50;99.90;;;;;;5005657;28;20050;-67
2023/03/23 11:58:50;;;;;;;4.65;1.35;;;15.40;99.90;;;;;;5015221;28;20041;-67
2023/03/23 12:01:48;;;;;;;0.28;0.28;;;15.60;99.90;;;;;;5013966;28;20057;-67
2023/03/23 12:04:35;;;;;;;11.52;0.77;;;16.00;99.90;;;;;;4966281;28;20069;-67
2023/03/23 12:07:26;;;;;;;1.65;1.38;;;15.90;99.90;;;;;;5000841;28;20129;-67
2023/03/23 12:10:15;;;;;;;0.73;0.73;;;15.50;99.90;;;;;;5003347;28;20085;-67
2023/03/23 12:12:46;;;;;;;0.10;0.10;;;15.40;99.90;;;;;;4998342;28;20457;-67
2023/03/23 12:15:53;;;;;;;2.75;1.75;;;15.70;99.90;;;;;;5014160;28;20787;-67
2023/03/23 12:18:25;;;;;;;0.38;0.38;;;15.50;99.90;;;;;;5001764;28;20042;-67
2023/03/23 12:21:15;;;;;;;0.10;0.10;;;15.40;99.90;;;;;;5004394;28;20547;-67
2023/03/23 12:24:00;;;;;;;4.40;2.22;;;15.30;99.90;;;;;;5007176;28;20469;-67
2023/03/23 12:26:30;;;;;;;1.00;0.98;;;15.50;99.90;;;;;;5000091;28;20371;-67
2023/03/23 12:29:23;;;;;;;0.65;0.65;;;15.80;99.90;;;;;;5012360;28;20461;-67
2023/03/23 12:32:10;;;;;;;0.70;0.70;;;15.90;99.90;;;;;;4995671;28;20046;-67
2023/03/23 12:34:54;;;;;;;0.28;0.28;;;15.90;99.90;;;;;;5012498;28;20679;-67
2023/03/23 12:37:20;;;;;;;0.00;0.00;;;15.60;99.90;;;;;;4998764;28;20038;-67
2023/03/23 12:40:08;;;;;;;2.40;1.98;;;15.40;99.90;;;;;;5003721;28;20379;-67
2023/03/23 12:42:49;;;;;;;0.50;0.50;;;15.90;99.90;;;;;;4999715;28;20050;-67
2023/03/23 12:45:43;;;;;;;0.03;0.03;;;16.30;99.90;;;;;;5006225;28;20453;-67
2023/03/23 12:48:16;;;;;;;1.48;1.02;;;16.50;99.90;;;;;;5004344;28;20137;-67
2023/03/23 12:50:45;;;;;;;1.58;1.38;;;16.10;99.90;;;;;;5011800;28;20046;-67
2023/03/23 12:53:21;;;;;;;0.68;0.68;;;16.40;99.90;;;;;;5011999;28;20041;-67
2023/03/23 12:55:58;;;;;;;0.38;0.38;;;16.40;99.90;;;;;;5002766;28;20056;-67
2023/03/23 12:58:28;;;;;;;4.43;2.13;;;16.50;99.90;;;;;;5001099;28;20129;-67
2023/03/23 13:01:13;;;;;;;0.00;0.00;;;16.30;99.90;;;;;;5003070;28;20559;-67
2023/03/23 13:04:11;;;;;;;5.75;1.20;;;15.90;99.90;;;;;;5010505;28;20050;-67
2023/03/23 13:06:42;;;;;;;13.27;0.47;;;16.00;99.90;;;;;;4992731;28;20057;-66